Time;durP1;ratioP1;P1;durP2;ratioP2;P2;SDS_P1;SDS_P2;PMS_P1;PMS_P2;Temp;Humidity;BMP_temperature;BMP_pressure;BME280_temperature;BME280_humidity;BME280_pressure;Samples;Min_cycle;Max_cycle;Signal;HPM_P1;HPM_P2
2022/07/14 00:01:37;;;;;;;10.45;2.70;;;;;;;21.66;53.27;102013.00;5077924;28;20085;-67
2022/07/14 00:04:04;;;;;;;8.98;2.30;;;;;;;21.68;53.28;102007.03;5085277;28;20525;-67
2022/07/14 00:06:29;;;;;;;7.93;2.58;;;;;;;21.66;53.39;102010.19;5078360;28;20110;-67
2022/07/14 00:08:54;;;;;;;11.38;2.42;;;;;;;21.68;52.75;102024.00;5088827;28;20199;-67
2022/07/14 00:11:20;;;;;;;7.65;2.40;;;;;;;21.61;53.51;102024.34;5070791;28;20479;-67
2022/07/14 00:13:45;;;;;;;12.10;3.22;;;;;;;21.55;53.33;102015.09;5072214;28;20020;-67
2022/07/14 00:16:10;;;;;;;10.63;2.92;;;;;;;21.42;53.44;102004.50;5080316;28;20036;-67
2022/07/14 00:18:43;;;;;;;10.93;2.67;;;;;;;21.46;53.79;101999.94;5081318;28;20090;-67
2022/07/14 00:21:09;;;;;;;11.65;2.50;;;;;;;21.42;53.97;101989.53;5080667;28;20020;-67
2022/07/14 00:23:34;;;;;;;10.15;2.33;;;;;;;21.42;53.95;101981.06;5088721;28;20099;-67
2022/07/14 00:25:59;;;;;;;14.38;2.75;;;;;;;21.40;54.02;101972.88;5080717;28;20093;-67
2022/07/14 00:28:24;;;;;;;9.55;2.50;;;;;;;21.45;54.03;101975.66;5071216;28;20059;-67
2022/07/14 00:30:51;;;;;;;14.85;3.08;;;;;;;21.41;54.08;101973.72;5071699;28;20089;-67
2022/07/14 00:33:17;;;;;;;8.45;2.83;;;;;;;21.44;54.08;101996.56;5074629;28;20020;-67
2022/07/14 00:35:42;;;;;;;10.85;2.97;;;;;;;21.41;54.10;102001.97;5071732;28;20044;-67
2022/07/14 00:38:07;;;;;;;9.85;2.88;;;;;;;21.45;53.94;102005.88;5091198;28;20169;-67
2022/07/14 00:40:32;;;;;;;10.52;3.05;;;;;;;21.33;54.20;101998.66;5091163;28;20025;-67
2022/07/14 00:42:58;;;;;;;13.23;2.95;;;;;;;21.36;54.29;101999.22;5070856;28;20036;-67
2022/07/14 00:45:26;;;;;;;8.88;2.40;;;;;;;21.27;54.60;102002.66;5071102;28;20023;-67
2022/07/14 00:47:51;;;;;;;9.13;2.47;;;;;;;21.27;54.72;101999.81;5070798;28;20036;-67
2022/07/14 00:50:18;;;;;;;11.80;3.50;;;;;;;21.26;54.79;101995.31;5080827;28;20066;-67
2022/07/14 00:52:46;;;;;;;10.23;2.95;;;;;;;21.29;54.79;101989.06;5093422;28;20624;-67
2022/07/14 00:55:12;;;;;;;9.00;2.63;;;;;;;21.27;54.55;101991.34;5081627;28;20070;-67
2022/07/14 00:57:38;;;;;;;8.77;2.78;;;;;;;21.21;54.83;101998.19;5077327;28;20125;-67
2022/07/14 01:00:07;;;;;;;11.45;3.30;;;;;;;21.20;54.95;101996.50;5074487;28;20487;-67
2022/07/14 01:02:32;;;;;;;8.10;3.00;;;;;;;21.16;54.74;101995.41;5074509;28;20028;-67
2022/07/14 01:04:58;;;;;;;13.10;3.10;;;;;;;21.24;54.89;101991.94;5074770;28;20389;-67
2022/07/14 01:07:23;;;;;;;9.43;2.88;;;;;;;21.29;54.82;102002.34;5085060;28;20027;-67
2022/07/14 01:09:48;;;;;;;8.43;2.40;;;;;;;21.27;54.78;102002.66;5090526;28;20024;-67
2022/07/14 01:12:14;;;;;;;11.55;3.30;;;;;;;21.22;54.82;102016.81;5084071;28;20527;-67
2022/07/14 01:14:41;;;;;;;10.05;2.78;;;;;;;21.24;54.83;102019.34;5080455;28;20029;-67
2022/07/14 01:17:07;;;;;;;8.00;2.42;;;;;;;21.19;54.78;102011.78;5080608;28;20024;-67
2022/07/14 01:19:33;;;;;;;11.60;3.30;;;;;;;21.18;54.81;102012.91;5090380;28;20383;-67
2022/07/14 01:21:59;;;;;;;9.25;3.20;;;;;;;21.23;54.74;102012.84;5078475;28;20021;-67
2022/07/14 01:24:25;;;;;;;11.55;3.35;;;;;;;21.12;55.00;102022.56;5082037;28;20017;-67
2022/07/14 01:26:51;;;;;;;10.10;2.78;;;;;;;21.19;54.99;102023.06;5081090;28;20115;-67
2022/07/14 01:29:18;;;;;;;11.23;3.25;;;;;;;21.14;55.22;102023.09;5091585;28;20031;-67
2022/07/14 01:31:43;;;;;;;12.43;2.75;;;;;;;21.18;55.06;102015.75;5077335;28;20025;-67
2022/07/14 01:34:09;;;;;;;11.98;2.65;;;;;;;21.18;55.00;102021.38;5073398;28;20070;-67
2022/07/14 01:36:34;;;;;;;8.57;3.08;;;;;;;21.14;54.90;102025.91;5092221;28;20028;-67
2022/07/14 01:39:00;;;;;;;11.68;2.70;;;;;;;21.17;54.93;102018.84;5108244;28;20466;-67
2022/07/14 01:41:26;;;;;;;12.18;3.38;;;;;;;21.15;54.97;102026.78;5091740;28;20586;-67
2022/07/14 01:43:52;;;;;;;15.70;3.40;;;;;;;21.06;55.19;102024.59;5090626;28;20116;-67
2022/07/14 01:46:18;;;;;;;13.77;3.13;;;;;;;20.97;55.52;102023.53;5078722;28;20032;-67
2022/07/14 01:48:43;;;;;;;10.63;3.30;;;;;;;20.83;55.68;102014.91;5072475;28;20040;-67
2022/07/14 01:51:08;;;;;;;10.05;2.90;;;;;;;20.84;55.77;102010.94;5081479;28;20075;-67
2022/07/14 01:53:34;;;;;;;8.18;2.88;;;;;;;20.87;55.81;102019.94;5091037;28;20039;-67
2022/07/14 01:56:00;;;;;;;9.98;3.30;;;;;;;20.79;55.91;102007.31;5083447;28;20178;-67
2022/07/14 01:58:25;;;;;;;14.80;2.92;;;;;;;20.83;55.71;102006.44;5085542;28;20024;-67
2022/07/14 02:03:35;;;;;;;12.98;3.22;;;;;;;20.70;56.03;102004.25;5075657;28;20391;-67
2022/07/14 02:06:01;;;;;;;7.70;2.85;;;;;;;20.79;55.83;102011.00;5077197;28;20029;-67
2022/07/14 02:08:27;;;;;;;7.88;2.60;;;;;;;20.73;55.82;102009.31;5082455;28;20036;-67
2022/07/14 02:13:36;;;;;;;10.63;2.80;;;;;;;20.67;55.89;102009.66;5077155;28;20110;-67
2022/07/14 02:16:01;;;;;;;12.07;3.15;;;;;;;20.70;55.54;102009.91;5079559;28;20042;-67
2022/07/14 02:18:26;;;;;;;13.45;3.38;;;;;;;20.63;55.74;102003.75;5072728;28;20043;-67
2022/07/14 02:20:52;;;;;;;11.50;3.38;;;;;;;20.57;56.15;101999.28;5093646;28;20020;-67
2022/07/14 02:23:17;;;;;;;11.23;3.08;;;;;;;20.53;56.17;102009.47;5091404;28;20474;-67
2022/07/14 02:25:42;;;;;;;14.07;3.28;;;;;;;20.53;55.82;102010.31;5083565;28;20533;-67
2022/07/14 02:28:08;;;;;;;15.43;3.33;;;;;;;20.57;55.68;102008.59;5080790;28;20036;-67
2022/07/14 02:30:33;;;;;;;11.45;3.10;;;;;;;20.53;55.96;102010.31;5080945;28;20095;-67
2022/07/14 02:32:58;;;;;;;11.98;3.08;;;;;;;20.45;55.84;102007.25;5072834;28;20039;-67
2022/07/14 02:35:24;;;;;;;11.20;2.85;;;;;;;20.52;55.82;102003.00;5073214;28;20407;-67
2022/07/14 02:37:49;;;;;;;12.82;3.85;;;;;;;20.47;55.89;101999.31;5073693;28;20036;-67
2022/07/14 02:40:15;;;;;;;12.15;3.45;;;;;;;20.57;55.88;101993.66;5095889;28;20028;-67
2022/07/14 02:42:41;;;;;;;12.68;3.28;;;;;;;20.34;56.05;101993.19;5085329;28;20376;-67
2022/07/14 02:45:07;;;;;;;12.55;3.38;;;;;;;20.49;56.05;101991.47;5080792;28;20023;-67
2022/07/14 02:47:32;;;;;;;10.60;3.22;;;;;;;20.51;55.72;101989.16;5072839;28;20041;-67
2022/07/14 02:49:57;;;;;;;12.23;3.05;;;;;;;20.56;55.89;101980.69;5075793;28;20052;-67
2022/07/14 02:52:23;;;;;;;11.02;3.40;;;;;;;20.50;55.45;101979.03;5077241;28;20472;-67
2022/07/14 02:54:48;;;;;;;11.15;2.92;;;;;;;20.55;55.66;101973.34;5089202;28;20070;-67
2022/07/14 02:57:13;;;;;;;13.10;3.15;;;;;;;20.54;55.64;101974.50;5072494;28;20028;-67
2022/07/14 02:59:41;;;;;;;10.48;3.33;;;;;;;20.51;55.61;101977.88;5076826;28;20044;-67
2022/07/14 03:02:07;;;;;;;10.23;2.88;;;;;;;20.52;55.62;101977.63;5072059;28;20732;-67
2022/07/14 03:04:33;;;;;;;12.65;2.70;;;;;;;20.53;55.54;101984.09;5072497;28;20039;-67
2022/07/14 03:06:58;;;;;;;11.95;3.10;;;;;;;20.48;56.16;101984.94;5082830;28;20036;-67
2022/07/14 03:09:25;;;;;;;13.13;3.40;;;;;;;20.49;55.56;101981.00;5098347;28;20494;-67
2022/07/14 03:11:50;;;;;;;11.63;3.10;;;;;;;20.48;55.58;101979.31;5090184;28;20036;-67
2022/07/14 03:14:15;;;;;;;9.93;3.00;;;;;;;20.42;55.83;101973.97;5104708;28;20024;-67
2022/07/14 03:16:40;;;;;;;12.80;3.40;;;;;;;20.37;55.76;101969.22;5075784;28;20031;-67
2022/07/14 03:19:06;;;;;;;13.25;3.40;;;;;;;20.28;55.70;101962.53;5071890;28;20028;-67
2022/07/14 03:21:31;;;;;;;10.38;2.97;;;;;;;20.35;55.78;101951.75;5078331;28;20059;-67
2022/07/14 03:23:57;;;;;;;13.65;3.60;;;;;;;20.30;55.50;101954.59;5095692;28;20038;-67
2022/07/14 03:26:22;;;;;;;11.88;3.42;;;;;;;20.07;56.05;101948.53;5079281;28;20040;-67
2022/07/14 03:28:47;;;;;;;11.95;3.60;;;;;;;20.13;56.33;101955.00;5070469;28;20021;-67
2022/07/14 03:31:12;;;;;;;10.30;2.95;;;;;;;20.21;56.02;101951.56;5083997;28;20028;-67
2022/07/14 03:33:38;;;;;;;9.68;2.63;;;;;;;20.24;56.19;101948.16;5080481;28;20414;-67
2022/07/14 03:36:03;;;;;;;10.68;3.35;;;;;;;20.27;55.69;101953.19;5071860;28;20036;-67
2022/07/14 03:38:29;;;;;;;12.13;3.42;;;;;;;20.17;55.62;101953.28;5084153;28;20016;-67
2022/07/14 03:40:54;;;;;;;9.63;3.60;;;;;;;20.22;55.86;101956.06;5070441;28;20502;-67
2022/07/14 03:43:19;;;;;;;13.13;2.88;;;;;;;20.26;55.72;101947.88;5071898;28;20128;-67
2022/07/14 03:45:44;;;;;;;8.93;3.10;;;;;;;20.09;55.82;101956.72;5083765;28;20111;-67
2022/07/14 03:48:10;;;;;;;10.77;3.78;;;;;;;20.07;55.74;101945.72;5071288;28;20036;-67
2022/07/14 03:50:36;;;;;;;9.07;2.97;;;;;;;20.10;56.13;101958.38;5076121;28;20119;-67
2022/07/14 03:53:02;;;;;;;9.90;3.10;;;;;;;20.15;56.09;101958.34;5071825;28;20032;-67
2022/07/14 03:55:27;;;;;;;14.60;3.60;;;;;;;20.10;55.75;101972.47;5080181;28;20433;-67
2022/07/14 03:57:53;;;;;;;11.27;3.63;;;;;;;19.98;55.97;101980.44;5086535;28;20021;-67
2022/07/14 04:00:18;;;;;;;16.88;3.80;;;;;;;20.03;56.17;101978.44;5076998;28;20028;-67
2022/07/14 04:02:43;;;;;;;11.30;3.60;;;;;;;19.97;55.81;101975.94;5071165;28;20020;-67
2022/07/14 04:05:09;;;;;;;13.93;3.58;;;;;;;20.03;56.15;101983.22;5070589;28;20487;-68
2022/07/14 04:07:34;;;;;;;13.98;3.30;;;;;;;20.02;56.05;101987.19;5085258;28;20024;-67
2022/07/14 04:09:59;;;;;;;10.18;3.05;;;;;;;20.04;55.90;101987.72;5074844;28;20029;-67
2022/07/14 04:12:24;;;;;;;13.32;3.60;;;;;;;19.96;55.99;101986.34;5090327;28;20570;-66
2022/07/14 04:14:50;;;;;;;9.10;2.95;;;;;;;20.05;55.96;101980.97;5091373;28;20035;-67
2022/07/14 04:17:15;;;;;;;11.35;3.28;;;;;;;20.05;56.19;101980.97;5111375;28;20027;-67
2022/07/14 04:19:40;;;;;;;15.05;4.93;;;;;;;19.91;56.23;101974.28;5093879;28;20028;-66
2022/07/14 04:22:05;;;;;;;13.00;4.55;;;;;;;19.81;56.30;101978.84;5080727;28;20036;-67
2022/07/14 04:24:31;;;;;;;15.82;4.18;;;;;;;19.91;56.27;101977.94;5091638;28;20032;-67
2022/07/14 04:26:56;;;;;;;10.23;3.53;;;;;;;19.86;56.45;101977.97;5074796;28;20490;-67
2022/07/14 04:29:23;;;;;;;12.73;3.90;;;;;;;19.91;56.35;101972.28;5078223;28;20051;-67
2022/07/14 04:31:48;;;;;;;16.80;4.18;;;;;;;19.88;56.06;101969.22;5087196;28;20476;-67
2022/07/14 04:34:13;;;;;;;10.90;3.90;;;;;;;19.91;56.12;101977.09;5080492;28;20086;-67
2022/07/14 04:36:39;;;;;;;14.68;5.03;;;;;;;19.80;56.25;101982.75;5076224;28;20170;-66
2022/07/14 04:39:06;;;;;;;13.27;5.10;;;;;;;19.71;56.64;101987.31;5094833;28;20023;-67
2022/07/14 04:41:34;;;;;;;10.23;3.47;;;;;;;19.78;56.57;101975.75;5090167;28;20040;-67
2022/07/14 04:43:59;;;;;;;11.23;3.70;;;;;;;19.77;56.77;101962.78;5093920;28;20379;-67
2022/07/14 04:46:24;;;;;;;17.38;4.85;;;;;;;19.70;56.65;101960.28;5092479;28;20098;-67
2022/07/14 04:54:17;;;;;;;12.73;4.13;;;;;;;19.69;57.00;101958.59;5084724;28;20042;-67
2022/07/14 04:56:43;;;;;;;12.23;4.28;;;;;;;19.72;56.83;101965.63;5093098;28;20024;-67
2022/07/14 04:59:08;;;;;;;17.92;4.72;;;;;;;19.58;57.00;101973.81;5090617;28;20028;-67
2022/07/14 05:01:34;;;;;;;14.40;4.97;;;;;;;19.65;57.15;101968.75;5088000;28;20042;-66
2022/07/14 05:03:59;;;;;;;11.95;4.22;;;;;;;19.69;56.67;101972.69;5095383;28;20028;-67
2022/07/14 05:06:25;;;;;;;12.52;3.72;;;;;;;19.77;57.04;101980.53;5091063;28;20047;-67
2022/07/14 05:08:50;;;;;;;9.40;4.32;;;;;;;19.75;56.89;101991.25;5094907;28;20038;-67
2022/07/14 05:11:16;;;;;;;13.70;4.18;;;;;;;19.84;56.85;101989.50;5079204;28;20434;-67
2022/07/14 05:13:41;;;;;;;16.48;4.45;;;;;;;19.86;56.70;101992.88;5074122;28;20108;-66
2022/07/14 05:16:07;;;;;;;15.70;5.28;;;;;;;19.76;56.68;101990.09;5084787;28;20110;-67
2022/07/14 05:18:32;;;;;;;12.90;4.80;;;;;;;19.80;56.61;101993.19;5096555;28;20158;-66
2022/07/14 05:20:58;;;;;;;18.65;5.30;;;;;;;19.72;56.67;101986.16;5094500;28;20081;-67
2022/07/14 05:23:23;;;;;;;13.50;5.30;;;;;;;19.72;56.96;101976.88;5094728;28;20043;-67
2022/07/14 05:25:48;;;;;;;12.45;4.90;;;;;;;19.77;56.59;101982.53;5086935;28;20035;-67
2022/07/14 05:28:14;;;;;;;16.35;4.93;;;;;;;19.72;56.88;101994.63;5091118;28;20526;-67
2022/07/14 05:30:39;;;;;;;13.50;4.47;;;;;;;19.74;56.95;101986.75;5095494;28;20016;-67
2022/07/14 05:33:04;;;;;;;13.07;5.05;;;;;;;19.71;57.04;101980.84;5086990;28;20500;-67
2022/07/14 05:35:29;;;;;;;17.38;4.82;;;;;;;19.78;56.79;101981.38;5075706;28;20039;-66
2022/07/14 05:37:55;;;;;;;15.80;5.50;;;;;;;19.81;57.03;101978.84;5087165;28;20034;-67
2022/07/14 05:40:20;;;;;;;15.80;4.88;;;;;;;19.89;56.83;101979.38;5090994;28;20104;-67
2022/07/14 05:42:45;;;;;;;14.15;3.88;;;;;;;19.98;56.62;101972.81;5085257;28;20039;-66
2022/07/14 05:45:11;;;;;;;14.38;4.00;;;;;;;20.05;56.06;101990.28;5084824;28;20473;-66
2022/07/14 05:47:37;;;;;;;14.95;4.85;;;;;;;20.00;56.27;101987.50;5089201;28;20490;-67
2022/07/14 05:50:03;;;;;;;12.98;3.33;;;;;;;20.17;56.05;101981.47;5084437;28;20141;-67
2022/07/14 05:52:30;;;;;;;15.18;5.68;;;;;;;20.05;56.54;101992.25;5078413;28;20059;-67
2022/07/14 05:54:58;;;;;;;9.10;3.50;;;;;;;20.23;55.90;101985.94;5097485;28;20027;-67
2022/07/14 05:57:23;;;;;;;8.25;3.08;;;;;;;20.33;55.77;101976.59;5112981;28;20345;-67
2022/07/14 05:59:48;;;;;;;16.70;4.80;;;;;;;20.32;55.61;101975.75;5089781;28;20479;-67
2022/07/14 06:02:14;;;;;;;14.82;3.60;;;;;;;20.41;55.86;101973.16;5089568;28;20451;-67
2022/07/14 06:04:39;;;;;;;11.88;3.78;;;;;;;20.34;55.85;101970.63;5086473;28;20040;-67
2022/07/14 06:07:06;;;;;;;12.43;4.25;;;;;;;20.37;55.43;101976.84;5090488;28;20418;-67
2022/07/14 06:09:35;;;;;;;13.02;3.80;;;;;;;20.31;55.61;101982.50;5087119;28;20069;-67
2022/07/14 06:12:01;;;;;;;14.18;4.35;;;;;;;20.32;55.51;101980.53;5091677;28;20056;-65
2022/07/14 06:14:26;;;;;;;9.48;3.25;;;;;;;20.50;55.78;101979.88;5088873;28;20166;-66
2022/07/14 06:16:51;;;;;;;9.98;2.67;;;;;;;20.61;55.32;101979.81;5086697;28;20043;-65
2022/07/14 06:19:17;;;;;;;17.38;4.07;;;;;;;20.64;54.91;101985.72;5071482;28;20039;-65
2022/07/14 06:21:43;;;;;;;9.15;2.53;;;;;;;20.77;54.65;101982.22;5087597;28;20039;-65
2022/07/14 06:24:08;;;;;;;14.45;4.03;;;;;;;20.79;54.51;101973.47;5079304;28;20031;-67
2022/07/14 06:26:34;;;;;;;12.20;3.35;;;;;;;20.87;54.82;101964.38;5083323;28;20036;-65
2022/07/14 06:29:00;;;;;;;9.85;3.30;;;;;;;20.89;54.35;101964.06;5086151;28;20395;-66
2022/07/14 06:31:25;;;;;;;12.35;3.65;;;;;;;20.78;53.89;101975.41;5086398;28;20470;-65
2022/07/14 06:33:50;;;;;;;8.75;2.65;;;;;;;20.95;54.15;101985.47;5092465;28;20043;-65
2022/07/14 06:36:17;;;;;;;12.25;3.08;;;;;;;20.96;53.62;101989.97;5087750;28;20055;-66
2022/07/14 06:38:42;;;;;;;15.50;4.00;;;;;;;20.87;53.51;101983.25;5087480;28;20032;-66
2022/07/14 06:41:07;;;;;;;9.20;2.60;;;;;;;21.03;53.57;101985.66;5086936;28;20169;-66
2022/07/14 06:43:32;;;;;;;11.70;2.53;;;;;;;21.07;53.45;101989.56;5086857;28;20441;-65
2022/07/14 06:45:58;;;;;;;10.77;3.17;;;;;;;21.06;53.48;101990.72;5088595;28;20039;-65
2022/07/14 06:48:23;;;;;;;12.73;4.43;;;;;;;20.98;53.69;101996.97;5078640;28;20038;-64
2022/07/14 06:50:49;;;;;;;15.82;4.35;;;;;;;21.08;53.66;101987.59;5078238;28;20045;-65
2022/07/14 06:53:14;;;;;;;11.73;2.92;;;;;;;21.19;53.72;101982.69;5089675;28;20369;-65
2022/07/14 06:55:39;;;;;;;13.10;3.80;;;;;;;21.20;53.10;101985.22;5094521;28;20020;-65
2022/07/14 06:58:05;;;;;;;11.48;3.60;;;;;;;21.21;52.70;101986.03;5083017;28;20020;-66
2022/07/14 07:00:30;;;;;;;11.75;3.92;;;;;;;21.19;53.03;101983.53;5078694;28;20054;-64
2022/07/14 07:02:56;;;;;;;17.15;3.00;;;;;;;21.33;52.97;101973.22;5091573;28;20085;-66
2022/07/14 07:08:06;;;;;;;14.23;3.75;;;;;;;21.42;52.58;101972.56;5090788;28;20043;-68
2022/07/14 07:10:32;;;;;;;13.32;4.20;;;;;;;21.39;52.11;101976.84;5088177;28;20036;-68
2022/07/14 07:12:59;;;;;;;9.82;3.20;;;;;;;21.45;52.25;101983.28;5080608;28;20456;-69
2022/07/14 07:15:24;;;;;;;14.98;3.67;;;;;;;21.45;52.24;101994.59;5087042;28;20035;-68
2022/07/14 07:17:50;;;;;;;11.13;3.85;;;;;;;21.37;51.34;101978.28;5107094;28;20028;-68
2022/07/14 07:20:15;;;;;;;13.38;4.00;;;;;;;21.47;51.95;101981.00;5089282;28;20168;-68
2022/07/14 07:22:41;;;;;;;14.13;3.85;;;;;;;21.43;51.20;101982.75;5079688;28;20594;-66
2022/07/14 07:25:06;;;;;;;14.88;3.70;;;;;;;21.52;51.61;101969.66;5086591;28;20028;-67
2022/07/14 07:27:33;;;;;;;10.63;2.90;;;;;;;21.55;51.65;101974.72;5080150;28;20036;-68
2022/07/14 07:30:00;;;;;;;10.50;3.80;;;;;;;21.47;51.16;101972.53;5080016;28;20033;-68
2022/07/14 07:32:25;;;;;;;10.27;3.40;;;;;;;21.52;50.83;101959.19;5083783;28;20017;-68
2022/07/14 07:34:51;;;;;;;13.93;3.65;;;;;;;21.58;50.77;101967.63;5084999;28;20518;-68
2022/07/14 07:37:16;;;;;;;10.70;2.92;;;;;;;21.73;51.48;101970.25;5101739;28;20074;-68
2022/07/14 07:39:41;;;;;;;10.60;3.20;;;;;;;21.76;51.08;101962.00;5091509;28;20356;-68
2022/07/14 07:42:07;;;;;;;12.50;4.20;;;;;;;21.77;50.66;101960.88;5084983;28;20115;-69
2022/07/14 07:44:32;;;;;;;12.95;3.85;;;;;;;21.84;50.38;101951.19;5089049;28;20028;-68
2022/07/14 07:46:57;;;;;;;10.52;3.00;;;;;;;21.92;50.29;101947.66;5092015;28;20027;-68
2022/07/14 07:49:23;;;;;;;13.20;3.10;;;;;;;21.79;48.37;101944.44;5100462;28;20118;-65
2022/07/14 07:51:48;;;;;;;14.10;2.85;;;;;;;21.90;49.40;101945.16;5090636;28;20059;-66
2022/07/14 07:54:14;;;;;;;10.60;3.03;;;;;;;21.96;49.25;101948.75;5089781;28;20031;-69
2022/07/14 07:56:39;;;;;;;10.18;3.72;;;;;;;22.04;49.59;101945.25;5104986;28;20028;-67
2022/07/14 07:59:05;;;;;;;9.50;3.00;;;;;;;21.94;48.70;101948.22;5090436;28;20069;-66
2022/07/14 08:01:31;;;;;;;13.15;3.55;;;;;;;22.03;49.67;101952.88;5092829;28;20019;-70
2022/07/14 08:03:56;;;;;;;9.52;2.90;;;;;;;21.99;48.28;101943.31;5096669;28;20119;-69
2022/07/14 08:06:21;;;;;;;10.15;2.88;;;;;;;22.16;49.00;101942.81;5092879;28;20471;-70
2022/07/14 08:08:47;;;;;;;12.85;2.75;;;;;;;22.10;48.61;101941.22;5089860;28;20036;-71
2022/07/14 08:11:12;;;;;;;9.07;3.05;;;;;;;22.12;48.30;101938.06;5088369;28;20020;-68
2022/07/14 08:13:38;;;;;;;9.63;3.05;;;;;;;22.17;48.02;101938.03;5090252;28;20031;-70
2022/07/14 08:16:04;;;;;;;9.30;2.60;;;;;;;22.27;47.89;101924.56;5090538;28;20055;-70
2022/07/14 08:18:29;;;;;;;8.02;2.78;;;;;;;22.30;47.59;101929.63;5088159;28;20036;-70
2022/07/14 08:20:54;;;;;;;11.30;2.95;;;;;;;22.30;46.89;101923.13;5093547;28;20032;-70
2022/07/14 08:23:20;;;;;;;8.15;2.80;;;;;;;22.43;47.61;101929.97;5093399;28;20069;-69
2022/07/14 08:25:45;;;;;;;10.65;3.30;;;;;;;22.32;46.16;101925.63;5088470;28;20032;-69
2022/07/14 08:28:11;;;;;;;9.35;3.35;;;;;;;22.39;46.44;101914.78;5088396;28;20151;-65
2022/07/14 08:30:36;;;;;;;8.65;3.10;;;;;;;22.38;46.76;101918.75;5088495;28;20391;-67
2022/07/14 08:33:01;;;;;;;10.73;2.90;;;;;;;22.48;47.45;101924.28;5093658;28;20028;-67
2022/07/14 08:35:27;;;;;;;7.50;2.95;;;;;;;22.47;46.54;101925.41;5095430;28;20024;-67
2022/07/14 08:37:53;;;;;;;8.52;3.05;;;;;;;22.48;46.51;101925.09;5080847;28;20446;-66
2022/07/14 08:40:25;;;;;;;11.40;3.08;;;;;;;22.50;45.97;101913.47;5089434;28;20027;-66
2022/07/14 08:42:52;;;;;;;11.75;2.65;;;;;;;22.54;46.72;101914.53;5088727;28;20028;-66
2022/07/14 08:45:24;;;;;;;6.20;2.30;;;;;;;22.61;47.18;101923.47;5083074;28;20025;-66
2022/07/14 08:47:50;;;;;;;10.65;2.70;;;;;;;22.61;46.54;101926.31;5078548;28;20037;-62
2022/07/14 08:50:19;;;;;;;8.32;2.85;;;;;;;22.61;45.40;101928.28;5090084;28;21299;-66
2022/07/14 08:52:46;;;;;;;7.32;2.53;;;;;;;22.62;45.55;101919.47;5087537;28;20031;-66
2022/07/14 08:55:14;;;;;;;9.60;2.67;;;;;;;22.60;44.90;101915.28;5096716;28;20031;-66
2022/07/14 08:57:40;;;;;;;9.70;2.78;;;;;;;22.56;44.30;101915.06;5087887;28;20103;-66
2022/07/14 09:00:11;;;;;;;11.90;2.50;;;;;;;22.57;44.17;101928.06;5086725;28;20025;-66
2022/07/14 09:02:38;;;;;;;7.57;2.75;;;;;;;22.62;44.87;101922.31;5076140;28;20096;-67
2022/07/14 09:05:04;;;;;;;8.00;2.83;;;;;;;22.64;44.48;101922.84;5094393;28;20042;-66
2022/07/14 09:07:37;;;;;;;7.78;2.97;;;;;;;22.68;44.83;101920.25;5094182;28;20059;-67
2022/07/14 09:10:06;;;;;;;12.93;2.80;;;;;;;22.80;44.97;101914.94;5082321;28;20387;-65
2022/07/14 09:12:32;;;;;;;8.40;3.15;;;;;;;22.84;44.14;101912.34;5087696;28;20118;-71
2022/07/14 09:17:59;;;;;;;10.88;3.08;;;;;;;23.00;44.49;101910.94;5093138;28;20046;-72
2022/07/14 09:20:31;;;;;;;8.32;2.80;;;;;;;23.04;43.51;101909.16;5088842;28;20035;-74
2022/07/14 09:22:58;;;;;;;10.18;2.92;;;;;;;23.07;43.52;101905.69;5086941;28;20024;-66
2022/07/14 09:25:25;;;;;;;8.50;2.22;;;;;;;23.15;43.90;101912.63;5084532;28;20032;-66
2022/07/14 09:27:51;;;;;;;8.45;2.40;;;;;;;23.16;42.69;101912.31;5093504;28;20115;-72
2022/07/14 09:30:17;;;;;;;5.63;2.40;;;;;;;23.16;42.60;101915.16;5099397;28;20542;-72
2022/07/14 09:32:50;;;;;;;5.88;2.20;;;;;;;23.20;42.83;101901.19;5111065;28;20027;-71
2022/07/14 09:35:21;;;;;;;8.57;2.50;;;;;;;23.27;43.43;101902.47;5113973;28;20038;-72
2022/07/14 09:37:47;;;;;;;10.07;2.73;;;;;;;23.31;43.17;101896.19;5103210;28;20423;-69
2022/07/14 09:40:21;;;;;;;7.82;2.45;;;;;;;23.33;43.71;101900.34;5078798;28;20094;-69
2022/07/14 09:42:56;;;;;;;10.18;2.40;;;;;;;23.37;43.60;101897.75;5090414;28;20032;-69
2022/07/14 09:45:33;;;;;;;6.43;2.03;;;;;;;23.39;40.92;101892.63;5091032;28;20113;-70
2022/07/14 09:47:59;;;;;;;5.03;1.80;;;;;;;23.35;40.63;101891.56;5084242;28;20028;-71
2022/07/14 09:50:50;;;;;;;6.77;1.73;;;;;;;23.41;41.92;101896.78;5096404;28;20055;-68
2022/07/14 09:53:25;;;;;;;5.50;1.98;;;;;;;23.38;41.05;101899.41;5101614;28;20381;-64
2022/07/14 09:56:05;;;;;;;7.20;1.60;;;;;;;23.37;40.81;101903.41;5089786;28;20699;-63
2022/07/14 09:58:35;;;;;;;4.15;1.50;;;;;;;23.37;40.45;101906.25;5075401;28;20028;-67
2022/07/14 10:01:08;;;;;;;4.18;1.60;;;;;;;23.42;40.76;101903.28;5072758;28;20060;-66
2022/07/14 10:03:35;;;;;;;5.72;2.20;;;;;;;23.46;42.12;101907.16;5076428;28;20399;-64
2022/07/14 10:06:02;;;;;;;8.38;2.53;;;;;;;23.42;41.00;101907.00;5073228;28;20024;-67
2022/07/14 10:08:30;;;;;;;6.88;2.10;;;;;;;23.57;41.05;101902.97;5077654;28;20224;-69
2022/07/14 10:10:57;;;;;;;7.00;1.80;;;;;;;23.59;40.68;101902.69;5087789;28;20024;-70
2022/07/14 10:13:24;;;;;;;7.18;2.00;;;;;;;23.51;39.63;101902.25;5087919;28;20039;-70
2022/07/14 10:15:51;;;;;;;6.20;2.08;;;;;;;23.47;41.29;101900.38;5088677;28;20024;-70
2022/07/14 10:18:18;;;;;;;5.25;1.80;;;;;;;23.33;39.82;101905.19;5093857;28;20052;-70
2022/07/14 10:20:49;;;;;;;3.85;1.75;;;;;;;23.42;41.30;101904.16;5081217;28;20502;-69
2022/07/14 10:23:16;;;;;;;7.47;1.83;;;;;;;23.47;40.65;101911.72;5072247;28;20112;-69
2022/07/14 10:25:42;;;;;;;6.88;1.70;;;;;;;23.36;40.53;101910.22;5073116;28;20438;-69
2022/07/14 10:28:08;;;;;;;6.03;1.98;;;;;;;23.38;41.15;101902.25;5073689;28;20025;-69
2022/07/14 10:30:38;;;;;;;4.47;1.58;;;;;;;23.40;41.01;101912.13;5084996;28;20119;-68
2022/07/14 10:33:57;;;;;;;5.35;1.65;;;;;;;23.55;42.09;101912.97;5085077;28;20036;-68
2022/07/14 10:36:42;;;;;;;4.53;1.50;;;;;;;23.62;41.04;101919.03;5018420;28;20030;-65
2022/07/14 10:39:22;;;;;;;7.30;1.45;;;;;;;23.67;40.25;101913.31;5080996;28;20426;-68
2022/07/14 10:42:09;;;;;;;6.25;1.77;;;;;;;23.73;39.55;101909.19;5103435;28;20089;-68
2022/07/14 10:44:36;;;;;;;6.97;1.58;;;;;;;23.81;39.31;101916.09;5078319;28;20093;-70
2022/07/14 10:47:12;;;;;;;7.28;1.65;;;;;;;23.83;40.01;101916.63;5081469;28;20033;-70
2022/07/14 10:50:10;;;;;;;3.40;1.40;;;;;;;23.85;39.77;101911.47;5074023;28;20105;-68
2022/07/14 10:52:38;;;;;;;4.07;1.45;;;;;;;23.74;37.85;101905.22;5092416;28;20132;-68
2022/07/14 10:55:16;;;;;;;3.50;1.48;;;;;;;23.68;38.83;101912.97;5080318;28;20020;-68
2022/07/14 10:58:00;;;;;;;4.32;1.40;;;;;;;23.72;39.51;101902.69;5081760;28;20036;-67
2022/07/14 11:00:41;;;;;;;3.92;1.30;;;;;;;23.72;39.89;101902.69;5072022;28;20025;-67
2022/07/14 11:03:19;;;;;;;5.25;1.52;;;;;;;23.74;40.13;101911.72;5070826;28;20763;-69
2022/07/14 11:06:00;;;;;;;5.28;1.42;;;;;;;23.66;39.50;101909.63;5102129;28;20066;-68
2022/07/14 11:08:27;;;;;;;6.17;1.70;;;;;;;23.70;39.46;101910.69;5092340;28;20043;-68
2022/07/14 11:10:54;;;;;;;7.80;1.73;;;;;;;23.80;39.67;101911.59;5077099;28;20061;-67
2022/07/14 11:13:21;;;;;;;7.57;1.80;;;;;;;23.86;39.31;101904.69;5091787;28;20491;-68
2022/07/14 11:15:59;;;;;;;8.90;1.75;;;;;;;23.88;39.01;101905.19;5083808;28;20062;-70
2022/07/14 11:18:34;;;;;;;4.85;1.50;;;;;;;23.92;39.45;101912.72;5083345;28;20089;-70
2022/07/14 11:21:17;;;;;;;7.60;1.90;;;;;;;24.02;39.73;101905.16;5083784;28;20117;-69
2022/07/14 11:23:45;;;;;;;9.00;1.70;;;;;;;24.08;39.06;101904.69;5075003;28;20028;-70
2022/07/14 11:26:47;;;;;;;20.88;2.70;;;;;;;24.13;39.53;101907.44;5091986;28;20486;-66
2022/07/14 11:29:13;;;;;;;5.53;1.70;;;;;;;24.09;38.74;101900.72;5081910;28;20040;-66
2022/07/14 11:31:50;;;;;;;7.05;1.80;;;;;;;24.03;39.28;101901.16;5072143;28;20039;-65
2022/07/14 11:37:13;;;;;;;5.57;1.40;;;;;;;24.18;39.51;101904.47;5078244;28;20035;-65
2022/07/14 11:39:41;;;;;;;5.57;1.60;;;;;;;24.18;38.73;101890.28;5085154;28;20025;-65